Airfield :
LOGIN :

Register | Disclaimer

   EN    FR    IT 

 










Legend :    VFR   Marginal VFR   IFR   Intensive IFR   Very Intensive IFR
Visi :
Ceiling :
>= 8 km
>= 3000ft
5 to 8 km
1000 to 3000 ft
1500m to 5 km
500 to 1000 ft
800 to 1500m
200 to 500 ft
< 800m
< 200 ft
Symbols :   Thunderstorms  Fog  Heavy snow  Heavy precipitations  Wind > 20 kt
SIGMETs :     Misc.  Thunderstorms  Icing  Turbulence  Mountain Waves  Volcanic Ashes







- Airport Elevation : 194 ft
- IATA code : LME
- Download approach charts


LFRM - Le Mans

CURRENT METAR :
  • 231400Z AUTO 21007KT 180V240 9999 BKN010 OVC015 13/12 Q1023 TEMPO 3000 -DZ BKN003

EXPIRED METARs :
  • 231330Z AUTO 21008KT 180V240 9999 OVC007 13/12 Q1024 TEMPO 3000 -DZ BKN012
  • 231300Z AUTO 20007KT 170V240 9999 OVC004 12/11 Q1024 TEMPO 3000 -DZ
  • 231230Z AUTO 21007KT 180V250 9999 OVC004 12/11 Q1024 TEMPO 3000 -DZ
  • 231200Z AUTO 22005KT 180V240 9999 OVC005 11/11 Q1024 TEMPO 3000 -DZ
  • 231130Z AUTO 19005KT 150V220 9999 OVC004 11/10 Q1024 TEMPO 3000 -DZ

TAF TAF LFRM
Valid from the 23 at 12:00 until the 23 at 21:00 UTC


231100Z 2312/2321 18006KT 8000 OVC007
TEMPO 2312/2315 3000 -DZ BKN003
TEMPO 2315/2318 BKN012
BECMG 2318/2321 2000 BR BKN002
No reported NOTAMs for that airfield.



MET'MAP, your aeronautical weather chart ! - Copyright ORBIFLY December 2007 - Disclaimer

ORBIFLY MET'MAP TEAM :

Programming & Development : Alexandra Zaïnal
Concept & Development : Baudouin d'Aumeries
Co-Development & Prog : Marc-Olivier Méhu
Technical & hardware support : Manuel Goepfert

Contact : metmap@orbifly.com




SOURCES & CREDITS :

   NOAA